sensor_id;sensor_type;location;lat;lon;timestamp;P1;durP1;ratioP1;P2;durP2;ratioP2
16826;SDS011;8530;49.540;8.576;2023-02-15T00:01:55;58.03;;;29.30;;
16826;SDS011;8530;49.540;8.576;2023-02-15T00:04:23;61.43;;;30.07;;
16826;SDS011;8530;49.540;8.576;2023-02-15T00:07:12;68.13;;;31.80;;
16826;SDS011;8530;49.540;8.576;2023-02-15T00:09:39;52.80;;;28.90;;
16826;SDS011;8530;49.540;8.576;2023-02-15T00:12:06;63.73;;;31.77;;
16826;SDS011;8530;49.540;8.576;2023-02-15T00:14:33;63.73;;;29.43;;
16826;SDS011;8530;49.540;8.576;2023-02-15T00:16:59;59.43;;;29.27;;
16826;SDS011;8530;49.540;8.576;2023-02-15T00:19:26;67.07;;;32.47;;
16826;SDS011;8530;49.540;8.576;2023-02-15T00:21:53;56.77;;;29.70;;
16826;SDS011;8530;49.540;8.576;2023-02-15T00:24:22;51.37;;;30.17;;
16826;SDS011;8530;49.540;8.576;2023-02-15T00:26:48;50.27;;;30.53;;
16826;SDS011;8530;49.540;8.576;2023-02-15T00:29:16;53.07;;;30.10;;
16826;SDS011;8530;49.540;8.576;2023-02-15T00:31:44;53.10;;;28.13;;
16826;SDS011;8530;49.540;8.576;2023-02-15T00:34:11;56.40;;;31.70;;
16826;SDS011;8530;49.540;8.576;2023-02-15T00:36:40;56.40;;;29.50;;
16826;SDS011;8530;49.540;8.576;2023-02-15T00:39:07;66.20;;;28.37;;
16826;SDS011;8530;49.540;8.576;2023-02-15T00:41:36;57.33;;;31.33;;
16826;SDS011;8530;49.540;8.576;2023-02-15T00:44:03;48.10;;;26.97;;
16826;SDS011;8530;49.540;8.576;2023-02-15T00:46:30;56.33;;;29.53;;
16826;SDS011;8530;49.540;8.576;2023-02-15T00:48:57;48.83;;;28.67;;
16826;SDS011;8530;49.540;8.576;2023-02-15T00:51:24;57.20;;;27.20;;
16826;SDS011;8530;49.540;8.576;2023-02-15T00:53:51;45.93;;;26.40;;
16826;SDS011;8530;49.540;8.576;2023-02-15T00:56:18;57.87;;;28.17;;
16826;SDS011;8530;49.540;8.576;2023-02-15T00:58:46;58.33;;;30.27;;
16826;SDS011;8530;49.540;8.576;2023-02-15T01:01:13;62.83;;;29.13;;
16826;SDS011;8530;49.540;8.576;2023-02-15T01:03:41;58.63;;;29.10;;
16826;SDS011;8530;49.540;8.576;2023-02-15T01:06:08;53.97;;;30.27;;
16826;SDS011;8530;49.540;8.576;2023-02-15T01:08:36;51.07;;;29.47;;
16826;SDS011;8530;49.540;8.576;2023-02-15T01:11:03;50.93;;;29.53;;
16826;SDS011;8530;49.540;8.576;2023-02-15T01:13:30;57.20;;;30.07;;
16826;SDS011;8530;49.540;8.576;2023-02-15T01:15:59;54.97;;;28.60;;
16826;SDS011;8530;49.540;8.576;2023-02-15T01:18:26;47.17;;;27.53;;
16826;SDS011;8530;49.540;8.576;2023-02-15T01:20:53;58.47;;;28.97;;
16826;SDS011;8530;49.540;8.576;2023-02-15T01:23:19;46.20;;;27.10;;
16826;SDS011;8530;49.540;8.576;2023-02-15T01:25:46;50.30;;;28.70;;
16826;SDS011;8530;49.540;8.576;2023-02-15T01:28:13;43.37;;;25.50;;
16826;SDS011;8530;49.540;8.576;2023-02-15T01:30:40;43.67;;;26.17;;
16826;SDS011;8530;49.540;8.576;2023-02-15T01:33:09;52.40;;;28.10;;
16826;SDS011;8530;49.540;8.576;2023-02-15T01:35:42;45.97;;;26.33;;
16826;SDS011;8530;49.540;8.576;2023-02-15T01:38:09;41.47;;;27.37;;
16826;SDS011;8530;49.540;8.576;2023-02-15T01:40:36;49.57;;;30.00;;
16826;SDS011;8530;49.540;8.576;2023-02-15T01:43:07;49.00;;;29.47;;
16826;SDS011;8530;49.540;8.576;2023-02-15T01:45:36;49.20;;;26.43;;
16826;SDS011;8530;49.540;8.576;2023-02-15T01:48:04;45.90;;;28.10;;
16826;SDS011;8530;49.540;8.576;2023-02-15T01:50:40;52.10;;;30.27;;
16826;SDS011;8530;49.540;8.576;2023-02-15T01:53:10;54.70;;;30.67;;
16826;SDS011;8530;49.540;8.576;2023-02-15T01:55:43;42.83;;;26.43;;
16826;SDS011;8530;49.540;8.576;2023-02-15T01:58:13;54.17;;;31.50;;
16826;SDS011;8530;49.540;8.576;2023-02-15T02:00:41;51.47;;;26.90;;
16826;SDS011;8530;49.540;8.576;2023-02-15T02:03:08;50.27;;;29.37;;
16826;SDS011;8530;49.540;8.576;2023-02-15T02:05:34;60.13;;;30.87;;
16826;SDS011;8530;49.540;8.576;2023-02-15T02:08:03;43.87;;;27.37;;
16826;SDS011;8530;49.540;8.576;2023-02-15T02:10:30;55.87;;;32.80;;
16826;SDS011;8530;49.540;8.576;2023-02-15T02:12:57;57.70;;;31.83;;
16826;SDS011;8530;49.540;8.576;2023-02-15T02:15:27;49.80;;;29.33;;
16826;SDS011;8530;49.540;8.576;2023-02-15T02:18:07;57.13;;;30.13;;
16826;SDS011;8530;49.540;8.576;2023-02-15T02:24:20;58.37;;;31.50;;
16826;SDS011;8530;49.540;8.576;2023-02-15T02:27:06;57.50;;;30.33;;
16826;SDS011;8530;49.540;8.576;2023-02-15T02:33:09;48.90;;;28.30;;
16826;SDS011;8530;49.540;8.576;2023-02-15T02:35:48;63.80;;;30.40;;
16826;SDS011;8530;49.540;8.576;2023-02-15T02:38:24;46.00;;;27.50;;
16826;SDS011;8530;49.540;8.576;2023-02-15T02:40:58;49.63;;;25.30;;
16826;SDS011;8530;49.540;8.576;2023-02-15T02:43:33;57.53;;;29.83;;
16826;SDS011;8530;49.540;8.576;2023-02-15T02:46:05;49.47;;;29.10;;
16826;SDS011;8530;49.540;8.576;2023-02-15T02:48:39;47.30;;;26.73;;
16826;SDS011;8530;49.540;8.576;2023-02-15T02:51:06;43.33;;;25.73;;
16826;SDS011;8530;49.540;8.576;2023-02-15T02:53:33;43.20;;;25.33;;
16826;SDS011;8530;49.540;8.576;2023-02-15T02:56:02;49.50;;;28.50;;
16826;SDS011;8530;49.540;8.576;2023-02-15T02:58:38;50.33;;;25.90;;
16826;SDS011;8530;49.540;8.576;2023-02-15T03:01:09;47.60;;;25.87;;
16826;SDS011;8530;49.540;8.576;2023-02-15T03:03:42;66.70;;;29.20;;
16826;SDS011;8530;49.540;8.576;2023-02-15T03:06:12;46.97;;;27.13;;
16826;SDS011;8530;49.540;8.576;2023-02-15T03:08:44;44.03;;;26.10;;
16826;SDS011;8530;49.540;8.576;2023-02-15T03:11:15;58.87;;;29.93;;
16826;SDS011;8530;49.540;8.576;2023-02-15T03:13:42;55.70;;;30.23;;
16826;SDS011;8530;49.540;8.576;2023-02-15T03:16:10;53.80;;;29.27;;
16826;SDS011;8530;49.540;8.576;2023-02-15T03:18:55;59.43;;;29.47;;
16826;SDS011;8530;49.540;8.576;2023-02-15T03:21:27;56.97;;;26.93;;
16826;SDS011;8530;49.540;8.576;2023-02-15T03:23:59;58.67;;;29.50;;
16826;SDS011;8530;49.540;8.576;2023-02-15T03:26:30;64.77;;;28.97;;
16826;SDS011;8530;49.540;8.576;2023-02-15T03:29:00;46.07;;;27.13;;
16826;SDS011;8530;49.540;8.576;2023-02-15T03:31:30;49.00;;;28.00;;
16826;SDS011;8530;49.540;8.576;2023-02-15T03:34:02;51.27;;;28.87;;
16826;SDS011;8530;49.540;8.576;2023-02-15T03:36:33;52.40;;;28.87;;
16826;SDS011;8530;49.540;8.576;2023-02-15T03:39:09;59.73;;;30.37;;
16826;SDS011;8530;49.540;8.576;2023-02-15T03:41:44;48.70;;;26.43;;
16826;SDS011;8530;49.540;8.576;2023-02-15T03:44:16;64.90;;;30.13;;
16826;SDS011;8530;49.540;8.576;2023-02-15T03:46:47;65.20;;;28.80;;
16826;SDS011;8530;49.540;8.576;2023-02-15T03:49:21;49.27;;;26.47;;
16826;SDS011;8530;49.540;8.576;2023-02-15T03:51:51;49.27;;;28.70;;
16826;SDS011;8530;49.540;8.576;2023-02-15T03:54:23;55.70;;;28.70;;
16826;SDS011;8530;49.540;8.576;2023-02-15T03:57:12;59.70;;;28.10;;
16826;SDS011;8530;49.540;8.576;2023-02-15T03:59:59;62.47;;;29.20;;
16826;SDS011;8530;49.540;8.576;2023-02-15T04:02:48;55.83;;;30.40;;
16826;SDS011;8530;49.540;8.576;2023-02-15T04:05:28;59.60;;;30.10;;
16826;SDS011;8530;49.540;8.576;2023-02-15T04:07:54;63.37;;;31.70;;
16826;SDS011;8530;49.540;8.576;2023-02-15T04:10:21;57.13;;;29.80;;
16826;SDS011;8530;49.540;8.576;2023-02-15T04:13:05;63.83;;;30.23;;
16826;SDS011;8530;49.540;8.576;2023-02-15T04:15:32;60.37;;;29.50;;
16826;SDS011;8530;49.540;8.576;2023-02-15T04:18:16;67.43;;;30.90;;
16826;SDS011;8530;49.540;8.576;2023-02-15T04:20:45;58.70;;;29.23;;
16826;SDS011;8530;49.540;8.576;2023-02-15T04:23:29;58.90;;;29.53;;
16826;SDS011;8530;49.540;8.576;2023-02-15T04:26:13;44.60;;;26.90;;
16826;SDS011;8530;49.540;8.576;2023-02-15T04:28:40;54.87;;;29.30;;
16826;SDS011;8530;49.540;8.576;2023-02-15T04:31:06;61.63;;;28.57;;
16826;SDS011;8530;49.540;8.576;2023-02-15T04:33:33;48.43;;;26.43;;
16826;SDS011;8530;49.540;8.576;2023-02-15T04:36:02;55.43;;;29.07;;
16826;SDS011;8530;49.540;8.576;2023-02-15T04:38:29;45.50;;;27.57;;
16826;SDS011;8530;49.540;8.576;2023-02-15T04:40:55;52.47;;;25.70;;
16826;SDS011;8530;49.540;8.576;2023-02-15T04:43:22;50.47;;;26.50;;
16826;SDS011;8530;49.540;8.576;2023-02-15T04:45:49;44.27;;;24.60;;
16826;SDS011;8530;49.540;8.576;2023-02-15T04:48:16;44.57;;;25.10;;
16826;SDS011;8530;49.540;8.576;2023-02-15T04:50:43;39.60;;;24.27;;
16826;SDS011;8530;49.540;8.576;2023-02-15T04:53:12;49.80;;;26.17;;
16826;SDS011;8530;49.540;8.576;2023-02-15T04:55:38;46.70;;;26.30;;
16826;SDS011;8530;49.540;8.576;2023-02-15T04:58:05;44.57;;;22.97;;
16826;SDS011;8530;49.540;8.576;2023-02-15T05:00:32;51.10;;;25.00;;
16826;SDS011;8530;49.540;8.576;2023-02-15T05:02:58;52.80;;;25.60;;
16826;SDS011;8530;49.540;8.576;2023-02-15T05:05:25;52.00;;;26.10;;
16826;SDS011;8530;49.540;8.576;2023-02-15T05:07:52;56.57;;;28.03;;
16826;SDS011;8530;49.540;8.576;2023-02-15T05:10:20;55.10;;;26.30;;
16826;SDS011;8530;49.540;8.576;2023-02-15T05:12:47;55.40;;;27.83;;
16826;SDS011;8530;49.540;8.576;2023-02-15T05:15:14;46.20;;;24.73;;
16826;SDS011;8530;49.540;8.576;2023-02-15T05:17:41;49.60;;;24.17;;
16826;SDS011;8530;49.540;8.576;2023-02-15T05:20:07;53.67;;;27.00;;
16826;SDS011;8530;49.540;8.576;2023-02-15T05:22:35;51.57;;;27.43;;
16826;SDS011;8530;49.540;8.576;2023-02-15T05:25:01;52.10;;;28.90;;
16826;SDS011;8530;49.540;8.576;2023-02-15T05:27:47;58.30;;;27.40;;
16826;SDS011;8530;49.540;8.576;2023-02-15T05:30:31;59.70;;;31.23;;
16826;SDS011;8530;49.540;8.576;2023-02-15T05:32:58;55.10;;;28.63;;
16826;SDS011;8530;49.540;8.576;2023-02-15T05:35:25;64.60;;;33.43;;
16826;SDS011;8530;49.540;8.576;2023-02-15T05:37:52;54.60;;;27.30;;
16826;SDS011;8530;49.540;8.576;2023-02-15T05:40:19;66.27;;;29.93;;
16826;SDS011;8530;49.540;8.576;2023-02-15T05:42:45;60.53;;;29.80;;
16826;SDS011;8530;49.540;8.576;2023-02-15T05:45:14;58.53;;;27.10;;
16826;SDS011;8530;49.540;8.576;2023-02-15T05:47:41;55.53;;;27.70;;
16826;SDS011;8530;49.540;8.576;2023-02-15T05:50:08;53.67;;;27.43;;
16826;SDS011;8530;49.540;8.576;2023-02-15T05:52:36;48.60;;;25.13;;
16826;SDS011;8530;49.540;8.576;2023-02-15T05:55:03;47.60;;;27.53;;
16826;SDS011;8530;49.540;8.576;2023-02-15T05:57:30;56.90;;;26.23;;
16826;SDS011;8530;49.540;8.576;2023-02-15T05:59:58;48.83;;;26.97;;
16826;SDS011;8530;49.540;8.576;2023-02-15T06:02:25;55.93;;;28.47;;
16826;SDS011;8530;49.540;8.576;2023-02-15T06:04:52;58.90;;;28.93;;
16826;SDS011;8530;49.540;8.576;2023-02-15T06:07:19;52.33;;;28.70;;
16826;SDS011;8530;49.540;8.576;2023-02-15T06:09:46;54.20;;;28.73;;
16826;SDS011;8530;49.540;8.576;2023-02-15T06:12:13;45.80;;;27.03;;
16826;SDS011;8530;49.540;8.576;2023-02-15T06:14:40;56.80;;;26.57;;
16826;SDS011;8530;49.540;8.576;2023-02-15T06:17:08;53.33;;;24.87;;
16826;SDS011;8530;49.540;8.576;2023-02-15T06:19:35;49.23;;;27.47;;
16826;SDS011;8530;49.540;8.576;2023-02-15T06:22:01;53.37;;;26.50;;
16826;SDS011;8530;49.540;8.576;2023-02-15T06:24:28;48.83;;;24.23;;
16826;SDS011;8530;49.540;8.576;2023-02-15T06:26:55;50.50;;;25.00;;
16826;SDS011;8530;49.540;8.576;2023-02-15T06:29:22;44.33;;;24.10;;
16826;SDS011;8530;49.540;8.576;2023-02-15T06:31:49;45.90;;;25.13;;
16826;SDS011;8530;49.540;8.576;2023-02-15T06:34:17;38.73;;;22.43;;
16826;SDS011;8530;49.540;8.576;2023-02-15T06:36:44;52.80;;;25.97;;
16826;SDS011;8530;49.540;8.576;2023-02-15T06:39:11;53.73;;;26.97;;
16826;SDS011;8530;49.540;8.576;2023-02-15T06:41:38;57.43;;;24.97;;
16826;SDS011;8530;49.540;8.576;2023-02-15T06:44:05;46.43;;;24.60;;
16826;SDS011;8530;49.540;8.576;2023-02-15T06:46:32;48.67;;;25.63;;
16826;SDS011;8530;49.540;8.576;2023-02-15T06:48:59;54.37;;;25.30;;
16826;SDS011;8530;49.540;8.576;2023-02-15T06:51:28;54.30;;;25.63;;
16826;SDS011;8530;49.540;8.576;2023-02-15T06:53:57;52.23;;;25.00;;
16826;SDS011;8530;49.540;8.576;2023-02-15T06:56:24;59.33;;;27.97;;
16826;SDS011;8530;49.540;8.576;2023-02-15T06:58:52;60.07;;;29.67;;
16826;SDS011;8530;49.540;8.576;2023-02-15T07:01:19;65.87;;;30.63;;
16826;SDS011;8530;49.540;8.576;2023-02-15T07:03:46;57.97;;;27.87;;
16826;SDS011;8530;49.540;8.576;2023-02-15T07:06:13;58.53;;;27.50;;
16826;SDS011;8530;49.540;8.576;2023-02-15T07:08:41;65.13;;;30.50;;
16826;SDS011;8530;49.540;8.576;2023-02-15T07:11:08;58.67;;;32.00;;
16826;SDS011;8530;49.540;8.576;2023-02-15T07:13:52;59.80;;;32.20;;
16826;SDS011;8530;49.540;8.576;2023-02-15T07:16:19;55.77;;;27.77;;
16826;SDS011;8530;49.540;8.576;2023-02-15T07:18:46;54.67;;;27.97;;
16826;SDS011;8530;49.540;8.576;2023-02-15T07:21:13;54.97;;;26.07;;
16826;SDS011;8530;49.540;8.576;2023-02-15T07:23:41;53.80;;;25.67;;
16826;SDS011;8530;49.540;8.576;2023-02-15T07:26:07;44.73;;;26.03;;
16826;SDS011;8530;49.540;8.576;2023-02-15T07:28:34;50.20;;;25.60;;
16826;SDS011;8530;49.540;8.576;2023-02-15T07:31:01;48.43;;;26.53;;
16826;SDS011;8530;49.540;8.576;2023-02-15T07:33:29;54.53;;;27.87;;
16826;SDS011;8530;49.540;8.576;2023-02-15T07:35:57;41.77;;;27.50;;
16826;SDS011;8530;49.540;8.576;2023-02-15T07:38:26;43.67;;;25.03;;
16826;SDS011;8530;49.540;8.576;2023-02-15T07:40:58;47.07;;;24.07;;
16826;SDS011;8530;49.540;8.576;2023-02-15T07:43:26;35.33;;;22.63;;
16826;SDS011;8530;49.540;8.576;2023-02-15T07:45:53;46.30;;;23.80;;
16826;SDS011;8530;49.540;8.576;2023-02-15T07:48:19;42.03;;;23.70;;
16826;SDS011;8530;49.540;8.576;2023-02-15T07:50:47;45.40;;;24.60;;
16826;SDS011;8530;49.540;8.576;2023-02-15T07:53:13;42.47;;;21.93;;
16826;SDS011;8530;49.540;8.576;2023-02-15T07:55:40;41.87;;;22.50;;
16826;SDS011;8530;49.540;8.576;2023-02-15T07:58:09;30.90;;;22.17;;
16826;SDS011;8530;49.540;8.576;2023-02-15T08:00:35;39.33;;;24.27;;
16826;SDS011;8530;49.540;8.576;2023-02-15T08:03:17;38.07;;;23.57;;
16826;SDS011;8530;49.540;8.576;2023-02-15T08:05:44;34.57;;;20.37;;
16826;SDS011;8530;49.540;8.576;2023-02-15T08:08:11;41.57;;;24.03;;
16826;SDS011;8530;49.540;8.576;2023-02-15T08:10:57;37.70;;;24.47;;
16826;SDS011;8530;49.540;8.576;2023-02-15T08:13:45;49.50;;;25.13;;
16826;SDS011;8530;49.540;8.576;2023-02-15T08:16:22;34.87;;;22.20;;
16826;SDS011;8530;49.540;8.576;2023-02-15T08:18:53;37.60;;;24.50;;
16826;SDS011;8530;49.540;8.576;2023-02-15T08:21:22;44.47;;;27.03;;
16826;SDS011;8530;49.540;8.576;2023-02-15T08:23:51;54.73;;;27.20;;
16826;SDS011;8530;49.540;8.576;2023-02-15T08:26:20;44.40;;;25.73;;
16826;SDS011;8530;49.540;8.576;2023-02-15T08:28:49;56.93;;;30.47;;
16826;SDS011;8530;49.540;8.576;2023-02-15T08:31:17;52.47;;;30.80;;
16826;SDS011;8530;49.540;8.576;2023-02-15T08:33:46;57.27;;;30.87;;
16826;SDS011;8530;49.540;8.576;2023-02-15T08:36:16;57.03;;;32.10;;
16826;SDS011;8530;49.540;8.576;2023-02-15T08:38:45;57.03;;;30.47;;
16826;SDS011;8530;49.540;8.576;2023-02-15T08:41:13;55.57;;;31.47;;
16826;SDS011;8530;49.540;8.576;2023-02-15T08:43:42;55.03;;;30.40;;
16826;SDS011;8530;49.540;8.576;2023-02-15T08:46:11;60.67;;;32.70;;
16826;SDS011;8530;49.540;8.576;2023-02-15T08:48:39;56.57;;;33.27;;
16826;SDS011;8530;49.540;8.576;2023-02-15T08:51:07;61.80;;;34.80;;
16826;SDS011;8530;49.540;8.576;2023-02-15T08:53:36;60.27;;;34.27;;
16826;SDS011;8530;49.540;8.576;2023-02-15T08:56:03;64.23;;;34.33;;
16826;SDS011;8530;49.540;8.576;2023-02-15T08:58:30;69.80;;;36.40;;
16826;SDS011;8530;49.540;8.576;2023-02-15T09:00:57;58.67;;;33.03;;
16826;SDS011;8530;49.540;8.576;2023-02-15T09:03:25;59.03;;;36.53;;
16826;SDS011;8530;49.540;8.576;2023-02-15T09:05:56;64.20;;;33.13;;
16826;SDS011;8530;49.540;8.576;2023-02-15T09:08:24;56.80;;;32.60;;
16826;SDS011;8530;49.540;8.576;2023-02-15T09:10:51;62.37;;;34.20;;
16826;SDS011;8530;49.540;8.576;2023-02-15T09:13:19;55.77;;;29.43;;
16826;SDS011;8530;49.540;8.576;2023-02-15T09:15:46;53.70;;;30.33;;
16826;SDS011;8530;49.540;8.576;2023-02-15T09:18:13;51.90;;;30.70;;
16826;SDS011;8530;49.540;8.576;2023-02-15T09:20:43;54.93;;;31.63;;
16826;SDS011;8530;49.540;8.576;2023-02-15T09:23:10;56.67;;;30.50;;
16826;SDS011;8530;49.540;8.576;2023-02-15T09:25:37;54.03;;;31.10;;
16826;SDS011;8530;49.540;8.576;2023-02-15T09:28:04;56.73;;;28.83;;
16826;SDS011;8530;49.540;8.576;2023-02-15T09:30:32;44.13;;;29.40;;
16826;SDS011;8530;49.540;8.576;2023-02-15T09:33:00;45.90;;;27.97;;
16826;SDS011;8530;49.540;8.576;2023-02-15T09:35:32;45.53;;;29.90;;
16826;SDS011;8530;49.540;8.576;2023-02-15T09:38:00;49.33;;;27.70;;
16826;SDS011;8530;49.540;8.576;2023-02-15T09:40:27;47.40;;;26.83;;
16826;SDS011;8530;49.540;8.576;2023-02-15T09:43:03;46.00;;;27.10;;
16826;SDS011;8530;49.540;8.576;2023-02-15T09:45:50;44.50;;;27.77;;
16826;SDS011;8530;49.540;8.576;2023-02-15T09:48:36;49.33;;;29.53;;
16826;SDS011;8530;49.540;8.576;2023-02-15T09:51:12;44.80;;;26.80;;
16826;SDS011;8530;49.540;8.576;2023-02-15T09:54:06;43.20;;;26.17;;
16826;SDS011;8530;49.540;8.576;2023-02-15T09:56:45;38.93;;;25.73;;
16826;SDS011;8530;49.540;8.576;2023-02-15T09:59:18;42.00;;;25.43;;
16826;SDS011;8530;49.540;8.576;2023-02-15T10:01:52;42.07;;;27.47;;
16826;SDS011;8530;49.540;8.576;2023-02-15T10:04:33;38.67;;;27.03;;
16826;SDS011;8530;49.540;8.576;2023-02-15T10:07:21;38.80;;;27.10;;
16826;SDS011;8530;49.540;8.576;2023-02-15T10:10:04;41.70;;;26.47;;
16826;SDS011;8530;49.540;8.576;2023-02-15T10:12:42;40.03;;;26.10;;
16826;SDS011;8530;49.540;8.576;2023-02-15T10:15:36;41.03;;;27.83;;
16826;SDS011;8530;49.540;8.576;2023-02-15T10:18:24;43.50;;;28.00;;
16826;SDS011;8530;49.540;8.576;2023-02-15T10:21:07;44.30;;;26.60;;
16826;SDS011;8530;49.540;8.576;2023-02-15T10:23:55;37.53;;;26.77;;
16826;SDS011;8530;49.540;8.576;2023-02-15T10:26:37;39.57;;;25.60;;
16826;SDS011;8530;49.540;8.576;2023-02-15T10:29:13;38.80;;;25.30;;
16826;SDS011;8530;49.540;8.576;2023-02-15T10:31:56;34.33;;;22.70;;
16826;SDS011;8530;49.540;8.576;2023-02-15T10:34:30;38.93;;;25.10;;
16826;SDS011;8530;49.540;8.576;2023-02-15T10:37:10;36.00;;;23.17;;
16826;SDS011;8530;49.540;8.576;2023-02-15T10:39:54;37.63;;;24.37;;
16826;SDS011;8530;49.540;8.576;2023-02-15T10:42:37;38.57;;;25.37;;
16826;SDS011;8530;49.540;8.576;2023-02-15T10:45:16;33.47;;;22.90;;
16826;SDS011;8530;49.540;8.576;2023-02-15T10:47:55;34.00;;;22.97;;
16826;SDS011;8530;49.540;8.576;2023-02-15T10:50:45;39.03;;;25.93;;
16826;SDS011;8530;49.540;8.576;2023-02-15T10:53:24;37.03;;;24.40;;
16826;SDS011;8530;49.540;8.576;2023-02-15T10:56:11;40.13;;;26.40;;
16826;SDS011;8530;49.540;8.576;2023-02-15T10:58:49;38.90;;;25.20;;
16826;SDS011;8530;49.540;8.576;2023-02-15T11:01:25;36.43;;;25.97;;
16826;SDS011;8530;49.540;8.576;2023-02-15T11:04:16;35.17;;;25.10;;
16826;SDS011;8530;49.540;8.576;2023-02-15T11:07:12;42.80;;;27.47;;
16826;SDS011;8530;49.540;8.576;2023-02-15T11:09:46;34.43;;;23.97;;
16826;SDS011;8530;49.540;8.576;2023-02-15T11:12:16;35.23;;;24.50;;
16826;SDS011;8530;49.540;8.576;2023-02-15T11:14:50;33.00;;;24.23;;
16826;SDS011;8530;49.540;8.576;2023-02-15T11:17:26;32.80;;;24.77;;
16826;SDS011;8530;49.540;8.576;2023-02-15T11:20:02;38.83;;;26.00;;
16826;SDS011;8530;49.540;8.576;2023-02-15T11:22:41;40.97;;;22.80;;
16826;SDS011;8530;49.540;8.576;2023-02-15T11:25:14;33.93;;;24.57;;
16826;SDS011;8530;49.540;8.576;2023-02-15T11:27:43;38.60;;;25.57;;
16826;SDS011;8530;49.540;8.576;2023-02-15T11:32:46;39.63;;;26.50;;
16826;SDS011;8530;49.540;8.576;2023-02-15T11:35:20;35.43;;;24.70;;
16826;SDS011;8530;49.540;8.576;2023-02-15T11:37:54;37.90;;;27.30;;
16826;SDS011;8530;49.540;8.576;2023-02-15T11:40:25;34.60;;;23.07;;
16826;SDS011;8530;49.540;8.576;2023-02-15T11:42:56;39.67;;;25.97;;
16826;SDS011;8530;49.540;8.576;2023-02-15T11:45:28;38.87;;;25.93;;
16826;SDS011;8530;49.540;8.576;2023-02-15T11:48:01;41.00;;;26.07;;
16826;SDS011;8530;49.540;8.576;2023-02-15T11:50:37;38.07;;;26.23;;
16826;SDS011;8530;49.540;8.576;2023-02-15T11:53:06;41.60;;;27.20;;
16826;SDS011;8530;49.540;8.576;2023-02-15T11:55:37;46.77;;;28.47;;
16826;SDS011;8530;49.540;8.576;2023-02-15T11:58:04;42.23;;;27.80;;
16826;SDS011;8530;49.540;8.576;2023-02-15T12:00:43;38.30;;;26.50;;
16826;SDS011;8530;49.540;8.576;2023-02-15T12:03:13;44.20;;;30.20;;
16826;SDS011;8530;49.540;8.576;2023-02-15T12:05:44;40.30;;;25.97;;
16826;SDS011;8530;49.540;8.576;2023-02-15T12:08:16;47.40;;;30.20;;
16826;SDS011;8530;49.540;8.576;2023-02-15T12:10:50;42.90;;;27.47;;
16826;SDS011;8530;49.540;8.576;2023-02-15T12:13:25;50.37;;;29.10;;
16826;SDS011;8530;49.540;8.576;2023-02-15T12:15:53;44.20;;;30.27;;
16826;SDS011;8530;49.540;8.576;2023-02-15T12:18:35;41.97;;;29.00;;
16826;SDS011;8530;49.540;8.576;2023-02-15T12:21:05;51.70;;;35.77;;
16826;SDS011;8530;49.540;8.576;2023-02-15T12:23:39;53.27;;;35.03;;
16826;SDS011;8530;49.540;8.576;2023-02-15T12:26:10;53.53;;;33.87;;
16826;SDS011;8530;49.540;8.576;2023-02-15T12:28:49;53.10;;;33.23;;
16826;SDS011;8530;49.540;8.576;2023-02-15T12:31:22;52.10;;;34.13;;
16826;SDS011;8530;49.540;8.576;2023-02-15T12:33:55;50.27;;;33.40;;
16826;SDS011;8530;49.540;8.576;2023-02-15T12:36:24;44.83;;;30.43;;
16826;SDS011;8530;49.540;8.576;2023-02-15T12:39:20;47.53;;;32.77;;
16826;SDS011;8530;49.540;8.576;2023-02-15T12:42:01;45.50;;;31.70;;
16826;SDS011;8530;49.540;8.576;2023-02-15T12:44:33;44.10;;;31.53;;
16826;SDS011;8530;49.540;8.576;2023-02-15T12:47:04;46.90;;;30.90;;
16826;SDS011;8530;49.540;8.576;2023-02-15T12:49:33;44.03;;;32.20;;
16826;SDS011;8530;49.540;8.576;2023-02-15T12:52:03;48.90;;;32.07;;
16826;SDS011;8530;49.540;8.576;2023-02-15T12:54:34;44.47;;;31.47;;
16826;SDS011;8530;49.540;8.576;2023-02-15T12:57:29;49.10;;;33.00;;
16826;SDS011;8530;49.540;8.576;2023-02-15T12:59:58;49.47;;;33.43;;
16826;SDS011;8530;49.540;8.576;2023-02-15T13:02:34;49.67;;;34.30;;
16826;SDS011;8530;49.540;8.576;2023-02-15T13:05:22;48.70;;;32.57;;
16826;SDS011;8530;49.540;8.576;2023-02-15T13:07:54;45.80;;;32.70;;
16826;SDS011;8530;49.540;8.576;2023-02-15T13:10:24;49.77;;;34.80;;
16826;SDS011;8530;49.540;8.576;2023-02-15T13:12:53;48.00;;;31.87;;
16826;SDS011;8530;49.540;8.576;2023-02-15T13:15:23;46.60;;;32.67;;
16826;SDS011;8530;49.540;8.576;2023-02-15T13:17:54;43.97;;;32.60;;
16826;SDS011;8530;49.540;8.576;2023-02-15T13:20:22;47.23;;;30.40;;
16826;SDS011;8530;49.540;8.576;2023-02-15T13:22:52;53.00;;;34.70;;
16826;SDS011;8530;49.540;8.576;2023-02-15T13:25:24;58.20;;;33.70;;
16826;SDS011;8530;49.540;8.576;2023-02-15T13:27:54;58.17;;;32.70;;
16826;SDS011;8530;49.540;8.576;2023-02-15T13:30:27;48.53;;;33.93;;
16826;SDS011;8530;49.540;8.576;2023-02-15T13:33:02;54.33;;;34.87;;
16826;SDS011;8530;49.540;8.576;2023-02-15T13:35:34;50.83;;;35.17;;
16826;SDS011;8530;49.540;8.576;2023-02-15T13:38:09;52.80;;;36.40;;
16826;SDS011;8530;49.540;8.576;2023-02-15T13:40:48;50.67;;;34.43;;
16826;SDS011;8530;49.540;8.576;2023-02-15T13:43:25;51.57;;;37.10;;
16826;SDS011;8530;49.540;8.576;2023-02-15T13:46:04;56.17;;;34.60;;
16826;SDS011;8530;49.540;8.576;2023-02-15T13:48:44;54.63;;;37.00;;
16826;SDS011;8530;49.540;8.576;2023-02-15T13:51:20;48.77;;;32.53;;
16826;SDS011;8530;49.540;8.576;2023-02-15T13:53:57;46.73;;;33.03;;
16826;SDS011;8530;49.540;8.576;2023-02-15T13:56:39;48.43;;;32.57;;
16826;SDS011;8530;49.540;8.576;2023-02-15T14:02:22;48.63;;;34.00;;
16826;SDS011;8530;49.540;8.576;2023-02-15T14:05:23;48.87;;;33.27;;
16826;SDS011;8530;49.540;8.576;2023-02-15T14:07:56;51.93;;;33.27;;
16826;SDS011;8530;49.540;8.576;2023-02-15T14:10:35;47.77;;;34.03;;
16826;SDS011;8530;49.540;8.576;2023-02-15T14:13:25;44.23;;;31.33;;
16826;SDS011;8530;49.540;8.576;2023-02-15T14:16:06;45.07;;;32.10;;
16826;SDS011;8530;49.540;8.576;2023-02-15T14:18:42;51.00;;;34.93;;
16826;SDS011;8530;49.540;8.576;2023-02-15T14:21:15;49.50;;;34.60;;
16826;SDS011;8530;49.540;8.576;2023-02-15T14:23:53;46.00;;;31.70;;
16826;SDS011;8530;49.540;8.576;2023-02-15T14:26:31;50.80;;;34.03;;
16826;SDS011;8530;49.540;8.576;2023-02-15T14:29:08;44.00;;;30.70;;
16826;SDS011;8530;49.540;8.576;2023-02-15T14:31:45;54.47;;;34.63;;
16826;SDS011;8530;49.540;8.576;2023-02-15T14:34:18;52.87;;;33.60;;
16826;SDS011;8530;49.540;8.576;2023-02-15T14:36:49;51.77;;;34.30;;
16826;SDS011;8530;49.540;8.576;2023-02-15T14:39:20;46.57;;;30.40;;
16826;SDS011;8530;49.540;8.576;2023-02-15T14:42:14;50.20;;;35.07;;
16826;SDS011;8530;49.540;8.576;2023-02-15T14:44:46;52.50;;;36.57;;
16826;SDS011;8530;49.540;8.576;2023-02-15T14:47:20;46.70;;;31.97;;
16826;SDS011;8530;49.540;8.576;2023-02-15T14:49:52;60.53;;;33.97;;
16826;SDS011;8530;49.540;8.576;2023-02-15T14:52:20;45.03;;;33.23;;
16826;SDS011;8530;49.540;8.576;2023-02-15T14:54:57;49.83;;;34.10;;
16826;SDS011;8530;49.540;8.576;2023-02-15T14:57:29;53.10;;;33.37;;
16826;SDS011;8530;49.540;8.576;2023-02-15T14:59:58;57.57;;;34.00;;
16826;SDS011;8530;49.540;8.576;2023-02-15T15:02:39;51.47;;;34.77;;
16826;SDS011;8530;49.540;8.576;2023-02-15T15:05:10;55.20;;;33.70;;
16826;SDS011;8530;49.540;8.576;2023-02-15T15:07:43;50.50;;;33.10;;
16826;SDS011;8530;49.540;8.576;2023-02-15T15:16:24;43.07;;;29.30;;
16826;SDS011;8530;49.540;8.576;2023-02-15T15:19:09;45.73;;;32.80;;
16826;SDS011;8530;49.540;8.576;2023-02-15T15:21:56;53.67;;;33.67;;